createdAt,value
2023-05-23T00:00:21.333Z,92.61
2023-05-23T00:01:21.331Z,92.61
2023-05-23T00:02:21.343Z,92.61
2023-05-23T00:03:21.408Z,92.81
2023-05-23T00:04:21.253Z,93.00
2023-05-23T00:05:21.132Z,92.61
2023-05-23T00:06:21.083Z,93.38
2023-05-23T00:07:21.094Z,93.19
2023-05-23T00:08:20.996Z,93.68
2023-05-23T00:09:20.972Z,93.48
2023-05-23T00:10:20.918Z,93.38
2023-05-23T00:11:20.874Z,93.48
2023-05-23T00:12:20.838Z,93.48
2023-05-23T00:13:20.821Z,94.25
2023-05-23T00:14:20.785Z,94.35
2023-05-23T00:15:20.719Z,94.45
2023-05-23T00:16:20.729Z,94.49
2023-05-23T00:17:20.644Z,94.25
2023-05-23T00:18:20.627Z,94.25
2023-05-23T00:19:20.601Z,93.77
2023-05-23T00:20:20.531Z,93.58
2023-05-23T00:21:20.468Z,93.68
2023-05-23T00:22:20.432Z,93.68
2023-05-23T00:23:20.388Z,93.87
2023-05-23T00:24:20.345Z,93.58
2023-05-23T00:25:20.338Z,93.87
2023-05-23T00:26:20.268Z,93.58
2023-05-23T00:27:20.238Z,93.96
2023-05-23T00:28:20.184Z,93.38
2023-05-23T00:29:20.172Z,93.48
2023-05-23T00:30:20.097Z,93.68
2023-05-23T00:31:20.097Z,93.77
2023-05-23T00:32:20.064Z,93.87
2023-05-23T00:33:20.001Z,93.68
2023-05-23T00:34:19.941Z,94.45
2023-05-23T00:35:19.895Z,94.25
2023-05-23T00:36:19.853Z,94.06
2023-05-23T00:37:19.820Z,94.25
2023-05-23T00:38:19.806Z,94.64
2023-05-23T00:39:20.352Z,93.77
2023-05-23T00:40:19.702Z,93.96
2023-05-23T00:41:19.696Z,94.40
2023-05-23T00:42:19.637Z,93.82
2023-05-23T00:43:19.576Z,94.30
2023-05-23T00:44:19.543Z,94.01
2023-05-23T00:45:19.517Z,94.59
2023-05-23T00:46:19.485Z,95.45
2023-05-23T00:47:19.430Z,95.36
2023-05-23T00:48:19.377Z,95.45
2023-05-23T00:49:19.331Z,95.17
2023-05-23T00:50:19.430Z,95.55
2023-05-23T00:51:19.256Z,95.45
2023-05-23T00:52:19.208Z,95.07
2023-05-23T00:53:19.155Z,95.36
2023-05-23T00:54:19.110Z,95.45
2023-05-23T00:55:19.082Z,95.17
2023-05-23T00:56:19.216Z,95.17
2023-05-23T00:57:18.992Z,95.17
2023-05-23T00:58:18.952Z,95.84
2023-05-23T00:59:18.907Z,95.17
2023-05-23T01:00:18.870Z,95.26
2023-05-23T01:01:18.840Z,95.17
2023-05-23T01:02:18.821Z,94.98
2023-05-23T01:03:18.895Z,94.78
2023-05-23T01:04:18.701Z,94.88
2023-05-23T01:05:18.663Z,95.07
2023-05-23T01:06:18.616Z,94.98
2023-05-23T01:07:18.577Z,95.07
2023-05-23T01:08:18.558Z,94.68
2023-05-23T01:09:18.512Z,95.07
2023-05-23T01:10:18.457Z,94.21
2023-05-23T01:11:18.408Z,94.11
2023-05-23T01:12:18.366Z,94.11
2023-05-23T01:13:18.337Z,94.49
2023-05-23T01:14:18.310Z,94.01
2023-05-23T01:15:18.249Z,93.91
2023-05-23T01:16:18.239Z,94.30
2023-05-23T01:17:18.162Z,93.87
2023-05-23T01:18:18.324Z,94.16
2023-05-23T01:19:18.086Z,93.68
2023-05-23T01:20:18.034Z,93.58
2023-05-23T01:21:17.992Z,93.87
2023-05-23T01:22:17.958Z,93.77
2023-05-23T01:23:17.912Z,94.35
2023-05-23T01:24:17.913Z,94.16
2023-05-23T01:25:17.834Z,94.16
2023-05-23T01:26:17.798Z,93.68
2023-05-23T01:27:17.743Z,94.26
2023-05-23T01:28:17.708Z,93.68
2023-05-23T01:29:17.665Z,94.16
2023-05-23T01:30:17.635Z,94.26
2023-05-23T01:31:17.614Z,94.54
2023-05-23T01:32:17.531Z,94.93
2023-05-23T01:33:17.498Z,94.93
2023-05-23T01:34:17.453Z,94.54
2023-05-23T01:35:17.411Z,94.06
2023-05-23T01:36:17.407Z,93.87
2023-05-23T01:37:17.334Z,94.16
2023-05-23T01:38:17.289Z,93.87
2023-05-23T01:39:17.258Z,94.45
2023-05-23T01:40:17.202Z,94.35
2023-05-23T01:41:17.165Z,95.21
2023-05-23T01:42:17.158Z,94.78
2023-05-23T01:43:17.091Z,95.07
2023-05-23T01:44:18.137Z,95.36
2023-05-23T01:45:16.997Z,94.78
2023-05-23T01:46:16.993Z,95.07
2023-05-23T01:47:16.933Z,95.26
2023-05-23T01:48:16.905Z,95.65
2023-05-23T01:49:16.869Z,95.65
2023-05-23T01:50:16.799Z,94.98
2023-05-23T01:51:16.754Z,95.94
2023-05-23T01:52:16.706Z,95.84
2023-05-23T01:53:16.691Z,95.84
2023-05-23T01:54:16.668Z,96.03
2023-05-23T01:55:16.581Z,96.32
2023-05-23T01:56:16.539Z,96.47
2023-05-23T01:57:16.499Z,97.14
2023-05-23T01:58:16.458Z,96.75
2023-05-23T01:59:16.414Z,96.94
2023-05-23T02:00:16.451Z,97.24
2023-05-23T02:01:16.362Z,96.47
2023-05-23T02:02:16.309Z,96.75
2023-05-23T02:03:16.488Z,96.85
2023-05-23T02:04:16.386Z,97.04
2023-05-23T02:05:16.171Z,96.85
2023-05-23T02:06:16.134Z,97.14
2023-05-23T02:07:16.084Z,96.99
2023-05-23T02:08:16.041Z,96.22
2023-05-23T02:09:16.009Z,96.22
2023-05-23T02:10:15.984Z,96.70
2023-05-23T02:11:15.916Z,96.32
2023-05-23T02:12:15.871Z,96.51
2023-05-23T02:13:15.841Z,96.99
2023-05-23T02:14:15.801Z,97.09
2023-05-23T02:15:15.750Z,96.80
2023-05-23T02:16:15.707Z,96.61
2023-05-23T02:17:15.706Z,96.13
2023-05-23T02:18:15.619Z,96.03
2023-05-23T02:19:15.610Z,95.65
2023-05-23T02:20:15.544Z,95.36
2023-05-23T02:21:15.516Z,95.17
2023-05-23T02:22:15.453Z,95.26
2023-05-23T02:23:15.416Z,95.45
2023-05-23T02:24:15.380Z,96.03
2023-05-23T02:25:15.337Z,95.84
2023-05-23T02:26:15.302Z,95.84
2023-05-23T02:27:15.246Z,96.22
2023-05-23T02:28:15.208Z,96.03
2023-05-23T02:29:15.171Z,95.55
2023-05-23T02:30:15.123Z,95.65
2023-05-23T02:31:15.096Z,95.55
2023-05-23T02:32:15.051Z,95.55
2023-05-23T02:33:15.040Z,94.69
2023-05-23T02:34:14.955Z,94.88
2023-05-23T02:35:14.911Z,94.88
2023-05-23T02:36:14.889Z,95.26
2023-05-23T02:37:14.865Z,95.26
2023-05-23T02:38:14.805Z,95.36
2023-05-23T02:39:14.771Z,95.17
2023-05-23T02:40:14.703Z,94.98
2023-05-23T02:41:14.663Z,95.07
2023-05-23T02:42:14.635Z,95.07
2023-05-23T02:43:14.592Z,95.17
2023-05-23T02:44:14.538Z,95.26
2023-05-23T02:45:14.529Z,95.07
2023-05-23T02:46:14.534Z,94.54
2023-05-23T02:47:14.412Z,94.98
2023-05-23T02:48:14.361Z,94.40
2023-05-23T02:49:14.330Z,94.83
2023-05-23T02:50:14.316Z,94.49
2023-05-23T02:51:14.250Z,94.93
2023-05-23T02:52:14.218Z,94.35
2023-05-23T02:53:14.166Z,94.16
2023-05-23T02:54:14.133Z,93.96
2023-05-23T02:55:14.123Z,94.35
2023-05-23T02:56:14.035Z,94.16
2023-05-23T02:57:13.997Z,93.96
2023-05-23T02:58:13.976Z,94.06
2023-05-23T02:59:13.922Z,93.96
2023-05-23T03:00:13.879Z,93.87
2023-05-23T03:01:13.955Z,94.35
2023-05-23T03:02:13.838Z,93.82
2023-05-23T03:03:13.853Z,94.49
2023-05-23T03:04:13.729Z,94.73
2023-05-23T03:05:13.663Z,94.54
2023-05-23T03:06:13.646Z,94.35
2023-05-23T03:07:26.905Z,93.96
2023-05-23T03:08:13.530Z,94.01
2023-05-23T03:09:13.496Z,93.87
2023-05-23T03:10:13.479Z,94.45
2023-05-23T03:11:13.419Z,94.21
2023-05-23T03:12:13.394Z,94.69
2023-05-23T03:13:13.355Z,94.49
2023-05-23T03:14:13.296Z,94.88
2023-05-23T03:15:13.254Z,94.88
2023-05-23T03:16:13.305Z,95.55
2023-05-23T03:17:13.162Z,95.94
2023-05-23T03:18:13.124Z,96.03
2023-05-23T03:19:13.272Z,95.84
2023-05-23T03:20:13.037Z,96.22
2023-05-23T03:21:12.996Z,96.32
2023-05-23T03:22:12.960Z,96.99
2023-05-23T03:23:12.916Z,97.19
2023-05-23T03:24:12.881Z,96.89
2023-05-23T03:25:12.860Z,96.99
2023-05-23T03:26:12.795Z,96.51
2023-05-23T03:27:12.753Z,96.22
2023-05-23T03:28:12.729Z,96.22
2023-05-23T03:29:12.665Z,96.03
2023-05-23T03:30:12.617Z,95.75
2023-05-23T03:31:12.578Z,95.94
2023-05-23T03:32:12.621Z,95.94
2023-05-23T03:33:12.494Z,96.03
2023-05-23T03:34:12.475Z,95.84
2023-05-23T03:35:12.476Z,95.55
2023-05-23T03:36:12.383Z,95.31
2023-05-23T03:37:12.343Z,95.50
2023-05-23T03:38:12.320Z,95.75
2023-05-23T03:39:12.246Z,95.65
2023-05-23T03:40:12.213Z,96.08
2023-05-23T03:41:12.168Z,95.79
2023-05-23T03:42:12.123Z,95.70
2023-05-23T03:43:12.105Z,95.45
2023-05-23T03:44:12.040Z,95.89
2023-05-23T03:45:11.998Z,95.50
2023-05-23T03:46:11.977Z,95.79
2023-05-23T03:47:11.916Z,95.89
2023-05-23T03:48:11.873Z,95.84
2023-05-23T03:49:11.846Z,96.17
2023-05-23T03:50:11.809Z,95.75
2023-05-23T03:51:11.745Z,95.89
2023-05-23T03:52:11.701Z,95.70
2023-05-23T03:53:11.662Z,95.36
2023-05-23T03:54:11.622Z,95.31
2023-05-23T03:55:11.585Z,95.50
2023-05-23T03:56:11.567Z,95.60
2023-05-23T03:57:11.496Z,95.12
2023-05-23T03:58:11.492Z,95.12
2023-05-23T03:59:11.420Z,94.83
2023-05-23T04:00:11.373Z,95.60
2023-05-23T04:01:11.337Z,95.40
2023-05-23T04:02:11.313Z,95.55
2023-05-23T04:03:11.322Z,95.70
2023-05-23T04:04:11.240Z,95.31
2023-05-23T04:05:11.156Z,94.93
2023-05-23T04:06:12.332Z,95.31
2023-05-23T04:07:11.082Z,95.40
2023-05-23T04:08:11.040Z,95.40
2023-05-23T04:09:10.996Z,95.45
2023-05-23T04:10:10.969Z,95.40
2023-05-23T04:11:10.905Z,95.45
2023-05-23T04:12:10.870Z,95.50
2023-05-23T04:13:10.865Z,95.36
2023-05-23T04:14:10.831Z,95.26
2023-05-23T04:15:10.773Z,95.84
2023-05-23T04:16:10.747Z,96.22
2023-05-23T04:17:10.663Z,96.75
2023-05-23T04:18:10.622Z,96.51
2023-05-23T04:19:10.597Z,96.89
2023-05-23T04:20:10.535Z,97.09
2023-05-23T04:21:10.533Z,96.51
2023-05-23T04:22:10.461Z,96.99
2023-05-23T04:23:10.447Z,96.89
2023-05-23T04:24:10.375Z,97.09
2023-05-23T04:25:10.341Z,96.99
2023-05-23T04:26:10.300Z,96.61
2023-05-23T04:27:10.298Z,96.27
2023-05-23T04:28:10.210Z,96.22
2023-05-23T04:29:10.166Z,96.03
2023-05-23T04:30:10.177Z,96.22
2023-05-23T04:31:10.090Z,96.27
2023-05-23T04:32:10.049Z,97.19
2023-05-23T04:33:10.094Z,96.99
2023-05-23T04:34:09.969Z,96.99
2023-05-23T04:35:11.108Z,96.99
2023-05-23T04:36:09.884Z,97.19
2023-05-23T04:37:09.832Z,97.28
2023-05-23T04:38:09.797Z,97.09
2023-05-23T04:39:09.838Z,97.19
2023-05-23T04:40:09.754Z,97.47
2023-05-23T04:41:09.688Z,97.52
2023-05-23T04:42:09.644Z,97.28
2023-05-23T04:43:09.594Z,97.09
2023-05-23T04:44:09.546Z,96.89
2023-05-23T04:45:09.904Z,96.89
2023-05-23T04:46:09.468Z,97.09
2023-05-23T04:47:09.601Z,97.14
2023-05-23T04:48:09.393Z,97.09
2023-05-23T04:49:09.339Z,97.09
2023-05-23T04:50:09.297Z,96.99
2023-05-23T04:51:09.289Z,96.89
2023-05-23T04:52:09.214Z,97.04
2023-05-23T04:53:09.181Z,97.14
2023-05-23T04:54:09.142Z,97.14
2023-05-23T04:55:09.098Z,97.14
2023-05-23T04:56:09.050Z,97.24
2023-05-23T04:57:09.043Z,97.24
2023-05-23T04:58:08.973Z,96.85
2023-05-23T04:59:08.923Z,97.42
2023-05-23T05:00:08.902Z,97.33
2023-05-23T05:01:08.884Z,97.24
2023-05-23T05:02:08.804Z,96.32
2023-05-23T05:03:08.830Z,95.45
2023-05-23T05:04:08.790Z,95.36
2023-05-23T05:05:08.674Z,95.07
2023-05-23T05:06:08.641Z,95.17
2023-05-23T05:07:08.601Z,93.82
2023-05-23T05:08:08.549Z,93.24
2023-05-23T05:09:08.529Z,92.43
2023-05-23T05:10:08.468Z,91.75
2023-05-23T05:11:08.426Z,90.69
2023-05-23T05:12:08.392Z,90.50
2023-05-23T05:13:08.351Z,90.02
2023-05-23T05:14:08.310Z,90.02
2023-05-23T05:15:08.344Z,89.10
2023-05-23T05:16:08.223Z,89.20
2023-05-23T05:17:08.253Z,89.20
2023-05-23T05:18:08.225Z,90.06
2023-05-23T05:19:08.146Z,89.20
2023-05-23T05:20:08.054Z,89.29
2023-05-23T05:21:08.043Z,89.49
2023-05-23T05:22:07.980Z,89.29
2023-05-23T05:23:07.928Z,89.10
2023-05-23T05:24:07.892Z,88.91
2023-05-23T05:25:07.898Z,87.95
2023-05-23T05:26:07.810Z,87.56
2023-05-23T05:27:07.779Z,86.60
2023-05-23T05:28:07.742Z,86.51
2023-05-23T05:29:07.688Z,86.02
2023-05-23T05:30:07.654Z,86.22
2023-05-23T05:31:07.946Z,84.72
2023-05-23T05:32:07.563Z,85.00
2023-05-23T05:33:07.583Z,84.33
2023-05-23T05:34:07.489Z,84.43
2023-05-23T05:35:07.446Z,84.81
2023-05-23T05:36:07.413Z,84.81
2023-05-23T05:37:07.467Z,84.47
2023-05-23T05:38:07.329Z,84.28
2023-05-23T05:39:07.287Z,83.99
2023-05-23T05:40:07.248Z,83.70
2023-05-23T05:41:09.089Z,84.18
2023-05-23T05:42:07.169Z,83.41
2023-05-23T05:43:07.349Z,83.45
2023-05-23T05:44:07.085Z,82.59
2023-05-23T05:45:07.038Z,81.52
2023-05-23T05:46:07.019Z,80.66
2023-05-23T05:47:06.957Z,80.08
2023-05-23T05:48:06.968Z,80.08
2023-05-23T05:49:06.940Z,80.27
2023-05-23T05:50:06.842Z,79.64
2023-05-23T05:51:06.806Z,79.06
2023-05-23T05:52:06.758Z,79.64
2023-05-23T05:53:06.723Z,79.35
2023-05-23T05:54:06.692Z,79.16
2023-05-23T05:55:06.841Z,78.48
2023-05-23T05:56:06.604Z,78.86
2023-05-23T05:57:06.564Z,78.77
2023-05-23T05:58:06.523Z,78.67
2023-05-23T05:59:06.499Z,78.67
2023-05-23T06:03:48.961Z,79.02
2023-05-23T06:04:48.063Z,79.31
2023-05-23T06:05:46.817Z,79.60
2023-05-23T06:06:47.033Z,79.98
2023-05-23T06:07:46.719Z,80.66
2023-05-23T06:08:49.113Z,81.04
2023-05-23T06:09:46.627Z,81.24
2023-05-23T06:10:46.873Z,82.01
2023-05-23T06:11:46.548Z,81.72
2023-05-23T06:12:46.677Z,81.33
2023-05-23T06:13:46.664Z,80.85
2023-05-23T06:14:46.419Z,80.85
2023-05-23T06:15:46.382Z,80.66
2023-05-23T06:16:47.559Z,80.85
2023-05-23T06:17:46.340Z,80.76
2023-05-23T06:18:48.602Z,80.76
2023-05-23T06:19:46.591Z,80.79
2023-05-23T06:20:46.211Z,80.76
2023-05-23T06:21:46.153Z,80.46
2023-05-23T06:22:46.347Z,81.14
2023-05-23T06:23:46.075Z,81.14
2023-05-23T06:24:46.146Z,80.56
2023-05-23T06:25:46.023Z,80.08
2023-05-23T06:26:45.941Z,79.89
2023-05-23T06:27:48.218Z,80.31
2023-05-23T06:28:45.884Z,80.22
2023-05-23T06:29:45.981Z,80.12
2023-05-23T06:30:45.775Z,79.93
2023-05-23T06:31:48.131Z,80.22
2023-05-23T06:32:45.771Z,80.22
2023-05-23T06:33:45.805Z,79.06
2023-05-23T06:34:45.622Z,79.44
2023-05-23T06:35:45.816Z,79.16
2023-05-23T06:36:45.533Z,79.16
2023-05-23T06:37:45.543Z,79.16
2023-05-23T06:38:46.861Z,78.81
2023-05-23T06:39:45.415Z,78.61
2023-05-23T06:40:45.639Z,78.52
2023-05-23T06:41:45.338Z,78.52
2023-05-23T06:42:45.457Z,77.94
2023-05-23T06:43:45.253Z,77.55
2023-05-23T06:44:45.488Z,76.98
2023-05-23T06:45:45.218Z,77.17
2023-05-23T06:46:45.279Z,76.53
2023-05-23T06:47:45.145Z,77.21
2023-05-23T06:48:45.065Z,77.11
2023-05-23T06:49:45.021Z,76.43
2023-05-23T06:50:45.309Z,76.24
2023-05-23T06:51:44.972Z,75.99
2023-05-23T06:52:45.115Z,74.73
2023-05-23T06:53:44.859Z,74.54
2023-05-23T06:54:44.822Z,73.86
2023-05-23T06:55:44.797Z,74.25
2023-05-23T06:56:44.945Z,73.71
2023-05-23T06:57:44.700Z,72.84
2023-05-23T06:58:46.526Z,73.42
2023-05-23T06:59:44.626Z,73.13
2023-05-23T07:00:44.627Z,72.16
2023-05-23T07:01:44.775Z,71.72
2023-05-23T07:02:44.755Z,71.62
2023-05-23T07:03:44.690Z,71.42
2023-05-23T07:04:44.456Z,71.23
2023-05-23T07:05:44.445Z,70.94
2023-05-23T07:06:44.379Z,71.14
2023-05-23T07:07:44.534Z,71.14
2023-05-23T07:08:44.311Z,71.14
2023-05-23T07:09:44.324Z,71.14
2023-05-23T07:10:44.207Z,70.84
2023-05-23T07:11:44.394Z,70.84
2023-05-23T07:12:44.138Z,71.14
2023-05-23T07:13:44.272Z,71.04
2023-05-23T07:14:44.040Z,71.33
2023-05-23T07:15:45.193Z,71.52
2023-05-23T07:16:44.016Z,71.04
2023-05-23T07:17:44.046Z,70.94
2023-05-23T07:18:45.002Z,71.04
2023-05-23T07:19:43.844Z,70.94
2023-05-23T07:20:43.992Z,70.59
2023-05-23T07:21:43.772Z,70.36
2023-05-23T07:22:45.035Z,71.04
2023-05-23T07:23:43.703Z,71.14
2023-05-23T07:25:06.755Z,70.65
2023-05-23T07:25:50.289Z,70.26
2023-05-23T07:26:43.572Z,70.07
2023-05-23T07:27:43.633Z,69.68
2023-05-23T07:28:43.888Z,69.40
2023-05-23T07:29:43.455Z,69.53
2023-05-23T07:30:44.600Z,69.82
2023-05-23T07:31:43.395Z,69.62
2023-05-23T07:32:43.481Z,69.04
2023-05-23T07:33:43.316Z,69.72
2023-05-23T07:34:43.334Z,69.62
2023-05-23T07:35:43.318Z,68.88
2023-05-23T07:36:51.323Z,68.69
2023-05-23T07:37:51.364Z,69.27
2023-05-23T07:38:50.907Z,68.11
2023-05-23T07:39:51.451Z,67.66
2023-05-23T07:40:43.299Z,67.66
2023-05-23T07:41:43.328Z,66.88
2023-05-23T07:42:42.991Z,66.24
2023-05-23T07:43:43.155Z,65.85
2023-05-23T07:44:42.895Z,64.79
2023-05-23T07:45:42.840Z,65.56
2023-05-23T07:46:42.898Z,64.79
2023-05-23T07:47:42.918Z,64.01
2023-05-23T07:48:42.729Z,64.34
2023-05-23T07:49:42.870Z,63.17
2023-05-23T07:50:42.805Z,63.01
2023-05-23T07:51:42.621Z,62.79
2023-05-23T07:52:44.748Z,63.20
2023-05-23T07:53:42.752Z,62.52
2023-05-23T07:54:42.715Z,62.43
2023-05-23T07:55:42.459Z,61.85
2023-05-23T07:56:43.582Z,61.68
2023-05-23T07:57:42.384Z,61.98
2023-05-23T07:58:42.530Z,60.91
2023-05-23T07:59:42.382Z,61.00
2023-05-23T08:00:42.433Z,60.71
2023-05-23T08:01:42.330Z,60.32
2023-05-23T08:02:43.825Z,60.13
2023-05-23T08:03:44.096Z,59.91
2023-05-23T08:04:42.882Z,60.10
2023-05-23T08:05:43.281Z,60.49
2023-05-23T08:06:48.663Z,60.39
2023-05-23T08:07:42.024Z,59.91
2023-05-23T08:08:41.986Z,60.30
2023-05-23T08:09:41.972Z,61.26
2023-05-23T08:10:42.140Z,60.68
2023-05-23T08:11:41.875Z,60.75
2023-05-23T08:12:42.061Z,60.85
2023-05-23T08:13:43.110Z,61.52
2023-05-23T08:14:50.433Z,62.10
2023-05-23T08:15:41.716Z,62.40
2023-05-23T08:17:04.993Z,62.79
2023-05-23T08:17:41.747Z,62.75
2023-05-23T08:18:41.721Z,62.85
2023-05-23T08:19:41.694Z,62.95
2023-05-23T08:20:41.796Z,63.14
2023-05-23T08:21:41.897Z,62.56
2023-05-23T08:22:41.495Z,62.75
2023-05-23T08:23:41.505Z,62.95
2023-05-23T08:24:41.404Z,62.56
2023-05-23T08:25:41.505Z,62.07
2023-05-23T08:26:41.308Z,62.56
2023-05-23T08:27:41.293Z,62.56
2023-05-23T08:28:41.531Z,62.66
2023-05-23T08:29:41.499Z,63.14
2023-05-23T08:30:41.532Z,63.04
2023-05-23T08:31:42.669Z,62.85
2023-05-23T08:32:41.228Z,62.56
2023-05-23T08:33:41.047Z,63.01
2023-05-23T08:34:41.164Z,62.56
2023-05-23T08:35:40.991Z,63.04
2023-05-23T08:36:40.970Z,62.95
2023-05-23T08:37:40.985Z,63.04
2023-05-23T08:38:40.856Z,62.10
2023-05-23T08:39:42.253Z,62.40
2023-05-23T08:40:40.975Z,61.33
2023-05-23T08:41:40.817Z,62.13
2023-05-23T08:42:40.776Z,61.26
2023-05-23T08:43:40.697Z,60.78
2023-05-23T08:44:41.068Z,60.23
2023-05-23T08:45:40.590Z,59.58
2023-05-23T08:46:41.710Z,59.51
2023-05-23T08:47:40.549Z,58.44
2023-05-23T08:48:41.688Z,57.98
2023-05-23T08:49:40.455Z,56.95
2023-05-23T08:50:40.663Z,56.07
2023-05-23T08:51:40.370Z,55.61
2023-05-23T08:52:40.689Z,55.32
2023-05-23T08:53:40.299Z,55.13
2023-05-23T08:54:40.519Z,54.86
2023-05-23T08:55:40.468Z,53.99
2023-05-23T08:56:40.309Z,53.89
2023-05-23T08:57:40.186Z,54.11
2023-05-23T08:58:40.314Z,54.03
2023-05-23T08:59:40.076Z,52.34
2023-05-23T09:00:40.404Z,51.58
2023-05-23T09:01:40.191Z,51.19
2023-05-23T09:02:41.469Z,50.41
2023-05-23T09:03:39.941Z,50.60
2023-05-23T09:04:40.153Z,49.51
2023-05-23T09:05:39.912Z,50.46
2023-05-23T09:06:39.833Z,51.12
2023-05-23T09:07:39.976Z,50.90
2023-05-23T09:08:39.863Z,51.84
2023-05-23T09:09:39.782Z,52.82
2023-05-23T09:10:39.881Z,53.40
2023-05-23T09:11:39.835Z,53.18
2023-05-23T09:12:39.698Z,53.18
2023-05-23T09:13:39.823Z,53.45
2023-05-23T09:14:39.731Z,54.03
2023-05-23T09:15:39.621Z,53.93
2023-05-23T09:16:39.582Z,54.13
2023-05-23T09:17:39.478Z,53.93
2023-05-23T09:18:39.410Z,54.22
2023-05-23T09:19:40.545Z,55.39
2023-05-23T09:20:39.512Z,57.11
2023-05-23T09:21:40.523Z,58.93
2023-05-23T09:22:39.263Z,60.25
2023-05-23T09:23:39.255Z,61.04
2023-05-23T09:24:39.201Z,62.95
2023-05-23T09:25:39.206Z,64.30
2023-05-23T09:26:39.330Z,65.05
2023-05-23T09:27:39.467Z,63.98
2023-05-23T09:29:00.204Z,65.05
2023-05-23T09:29:39.042Z,64.95
2023-05-23T09:30:39.335Z,65.69
2023-05-23T09:31:38.992Z,67.14
2023-05-23T09:32:39.185Z,68.40
2023-05-23T09:33:38.861Z,69.47
2023-05-23T09:34:38.823Z,70.54
2023-05-23T09:35:38.803Z,70.11
2023-05-23T09:36:38.962Z,70.79
2023-05-23T09:37:38.795Z,71.28
2023-05-23T09:38:39.836Z,72.53
2023-05-23T09:39:38.691Z,73.02
2023-05-23T09:40:38.687Z,72.83
2023-05-23T09:41:38.562Z,72.15
2023-05-23T09:42:38.590Z,68.76
2023-05-23T09:43:38.511Z,67.50
2023-05-23T09:44:39.634Z,66.82
2023-05-23T09:45:38.414Z,67.98
2023-05-23T09:46:38.444Z,70.40
2023-05-23T09:47:39.506Z,70.31
2023-05-23T09:48:38.300Z,68.85
2023-05-23T09:49:40.702Z,68.37
2023-05-23T09:50:38.349Z,68.08
2023-05-23T09:51:38.222Z,70.08
2023-05-23T09:52:38.218Z,71.92
2023-05-23T09:53:39.299Z,72.60
2023-05-23T09:54:38.088Z,72.02
2023-05-23T09:55:39.103Z,71.14
2023-05-23T09:56:38.007Z,71.24
2023-05-23T09:57:37.962Z,71.18
2023-05-23T09:58:38.306Z,70.40
2023-05-23T09:59:37.886Z,69.92
2023-05-23T10:00:39.041Z,69.63
2023-05-23T10:01:37.902Z,67.98
2023-05-23T10:02:37.807Z,67.50
2023-05-23T10:03:37.767Z,67.79
2023-05-23T10:04:38.117Z,68.56
2023-05-23T10:05:37.700Z,68.85
2023-05-23T10:06:41.226Z,68.21
2023-05-23T10:07:37.622Z,67.72
2023-05-23T10:08:37.552Z,66.56
2023-05-23T10:09:38.636Z,65.24
2023-05-23T10:10:37.594Z,65.63
2023-05-23T10:11:37.480Z,64.20
2023-05-23T10:12:39.850Z,62.88
2023-05-23T10:13:37.396Z,61.77
2023-05-23T10:14:37.415Z,59.38
2023-05-23T10:15:37.304Z,57.75
2023-05-23T10:16:37.449Z,56.90
2023-05-23T10:17:37.239Z,57.29
2023-05-23T10:18:37.433Z,56.15
2023-05-23T10:19:37.228Z,56.45
2023-05-23T10:20:37.238Z,55.66
2023-05-23T10:21:37.088Z,54.50
2023-05-23T10:22:37.250Z,54.11
2023-05-23T10:23:37.014Z,54.69
2023-05-23T10:24:39.313Z,54.76
2023-05-23T10:25:36.962Z,54.57
2023-05-23T10:26:37.096Z,54.86
2023-05-23T10:27:36.875Z,54.76
2023-05-23T10:28:37.098Z,55.03
2023-05-23T10:29:36.830Z,56.65
2023-05-23T10:30:42.573Z,56.26
2023-05-23T10:31:36.865Z,56.10
2023-05-23T10:32:36.948Z,56.39
2023-05-23T10:33:36.680Z,55.32
2023-05-23T10:34:37.764Z,55.80
2023-05-23T10:35:36.634Z,56.59
2023-05-23T10:36:36.563Z,55.35
2023-05-23T10:37:36.547Z,55.13
2023-05-23T10:40:20.910Z,54.96
2023-05-23T10:41:26.455Z,54.30
2023-05-23T10:42:15.977Z,54.21
2023-05-23T10:43:28.683Z,52.84
2023-05-23T10:44:07.710Z,52.87
2023-05-23T10:45:07.576Z,52.06
2023-05-23T10:46:07.795Z,52.45
2023-05-23T10:47:07.538Z,52.87
2023-05-23T10:48:07.872Z,52.67
2023-05-23T10:49:07.448Z,52.09
2023-05-23T10:50:07.568Z,52.97
2023-05-23T10:51:07.362Z,52.77
2023-05-23T10:52:07.626Z,52.89
2023-05-23T10:53:07.285Z,52.02
2023-05-23T10:54:07.578Z,51.43
2023-05-23T10:55:07.218Z,51.12
2023-05-23T10:56:07.387Z,51.90
2023-05-23T10:57:07.152Z,53.16
2023-05-23T10:58:07.403Z,54.13
2023-05-23T10:59:28.507Z,52.97
2023-05-23T11:00:07.056Z,52.28
2023-05-23T11:01:07.221Z,52.28
2023-05-23T11:02:07.023Z,51.34
2023-05-23T11:03:07.118Z,51.97
2023-05-23T11:04:06.940Z,51.82
2023-05-23T11:05:06.962Z,50.24
2023-05-23T11:06:07.068Z,48.33
2023-05-23T11:07:06.803Z,45.66
2023-05-23T11:08:07.910Z,43.66
2023-05-23T11:09:07.802Z,42.25
2023-05-23T11:10:06.699Z,40.43
2023-05-23T11:11:06.701Z,38.60
2023-05-23T11:12:06.910Z,37.74
2023-05-23T11:13:06.627Z,36.11
2023-05-23T11:14:06.700Z,35.75
2023-05-23T11:15:06.552Z,35.28
2023-05-23T11:16:06.851Z,33.52
2023-05-23T11:17:06.479Z,33.95
2023-05-23T11:18:06.774Z,33.57
2023-05-23T11:19:06.471Z,32.71
2023-05-23T11:20:06.559Z,31.65
2023-05-23T11:21:06.385Z,29.17
2023-05-23T11:22:06.331Z,29.37
2023-05-23T11:23:06.570Z,27.80
2023-05-23T11:24:06.292Z,28.11
2023-05-23T11:25:06.373Z,27.24
2023-05-23T11:26:06.433Z,26.95
2023-05-23T11:27:06.390Z,25.89
2023-05-23T11:28:06.176Z,25.09
2023-05-23T11:29:06.401Z,24.21
2023-05-23T11:30:06.135Z,23.94
2023-05-23T11:31:06.215Z,23.15
2023-05-23T11:32:06.143Z,23.07
2023-05-23T11:33:06.081Z,23.68
2023-05-23T11:34:06.029Z,23.77
2023-05-23T11:35:07.691Z,24.56
2023-05-23T11:36:05.975Z,24.24
2023-05-23T11:37:06.052Z,25.19
2023-05-23T11:38:05.930Z,26.35
2023-05-23T11:39:05.908Z,27.59
2023-05-23T11:40:05.885Z,27.92
2023-05-23T11:41:08.138Z,29.28
2023-05-23T11:42:05.823Z,30.54
2023-05-23T11:43:06.927Z,30.91
2023-05-23T11:44:05.773Z,31.59
2023-05-23T11:45:05.916Z,31.86
2023-05-23T11:46:06.007Z,32.06
2023-05-23T11:47:05.928Z,32.04
2023-05-23T11:48:05.711Z,32.82
2023-05-23T11:49:05.752Z,33.89
2023-05-23T11:50:05.740Z,33.84
2023-05-23T11:51:05.674Z,35.59
2023-05-23T11:52:05.759Z,38.13
2023-05-23T11:53:05.559Z,38.98
2023-05-23T11:54:06.603Z,38.93
2023-05-23T11:55:05.466Z,39.49
2023-05-23T11:56:05.436Z,40.35
2023-05-23T11:57:05.653Z,41.70
2023-05-23T11:58:05.598Z,43.05
2023-05-23T11:59:05.345Z,43.05
2023-05-23T12:00:06.436Z,43.32
2023-05-23T12:01:05.283Z,43.01
2023-05-23T12:02:05.427Z,42.91
2023-05-23T12:03:05.801Z,43.30
2023-05-23T12:04:05.501Z,43.49
2023-05-23T12:05:05.156Z,43.20
2023-05-23T12:06:05.451Z,42.42
2023-05-23T12:07:06.331Z,42.05
2023-05-23T12:08:05.318Z,41.76
2023-05-23T12:09:05.284Z,40.47
2023-05-23T12:10:04.988Z,41.44
2023-05-23T12:11:05.075Z,42.32
2023-05-23T12:12:04.929Z,42.30
2023-05-23T12:13:04.897Z,42.60
2023-05-23T12:14:04.890Z,43.07
2023-05-23T12:15:05.109Z,43.36
2023-05-23T12:16:04.889Z,44.34
2023-05-23T12:17:05.938Z,44.60
2023-05-23T12:18:05.347Z,44.58
2023-05-23T12:19:05.222Z,45.07
2023-05-23T12:20:05.755Z,45.34
2023-05-23T12:21:04.634Z,46.00
2023-05-23T12:22:05.780Z,46.47
2023-05-23T12:23:04.572Z,46.47
2023-05-23T12:24:04.763Z,46.73
2023-05-23T12:25:04.532Z,46.64
2023-05-23T12:26:04.578Z,48.95
2023-05-23T12:27:04.416Z,50.21
2023-05-23T12:28:04.590Z,51.45
2023-05-23T12:29:04.390Z,52.79
2023-05-23T12:30:06.307Z,55.61
2023-05-23T12:31:04.360Z,54.93
2023-05-23T12:32:05.469Z,54.52
2023-05-23T12:33:04.256Z,55.46
2023-05-23T12:34:04.428Z,56.14
2023-05-23T12:35:04.136Z,57.40
2023-05-23T12:36:05.330Z,56.79
2023-05-23T12:37:18.184Z,57.18
2023-05-23T12:38:04.034Z,57.47
2023-05-23T12:39:04.480Z,57.47
2023-05-23T12:40:03.966Z,58.73
2023-05-23T12:41:04.077Z,58.93
2023-05-23T12:42:03.915Z,61.52
2023-05-23T12:43:04.089Z,62.81
2023-05-23T12:44:03.827Z,61.81
2023-05-23T12:45:03.905Z,60.94
2023-05-23T12:46:03.785Z,62.49
2023-05-23T12:47:03.730Z,63.65
2023-05-23T12:48:03.754Z,64.82
2023-05-23T12:49:03.937Z,65.40
2023-05-23T12:50:03.811Z,65.01
2023-05-23T12:51:05.784Z,64.98
2023-05-23T12:52:03.540Z,64.50
2023-05-23T12:53:03.502Z,62.16
2023-05-23T12:54:03.771Z,62.65
2023-05-23T12:55:03.434Z,64.11
2023-05-23T12:56:03.794Z,62.85
2023-05-23T12:57:03.345Z,63.30